Time;durP1;ratioP1;P1;durP2;ratioP2;P2;SDS_P1;SDS_P2;PMS_P1;PMS_P2;Temp;Humidity;BMP_temperature;BMP_pressure;BME280_temperature;BME280_humidity;BME280_pressure;Samples;Min_cycle;Max_cycle;Signal;HPM_P1;HPM_P2
2022/09/15 00:02:13;;;;;;;0.10;0.10;;;16.40;99.90;;;;;;5080200;28;20020;-81
2022/09/15 00:04:39;;;;;;;0.10;0.10;;;16.40;99.90;;;;;;5061564;28;20028;-81
2022/09/15 00:07:05;;;;;;;0.10;0.10;;;;;;;;;;5079331;28;20301;-76
2022/09/15 00:09:31;;;;;;;0.10;0.10;;;16.30;99.90;;;;;;5080289;28;20236;-78
2022/09/15 00:11:56;;;;;;;0.10;0.10;;;16.40;99.90;;;;;;5078819;28;20024;-84
2022/09/15 00:14:23;;;;;;;0.10;0.10;;;16.40;99.90;;;;;;5078584;28;20251;-82
2022/09/15 00:16:49;;;;;;;0.17;0.17;;;16.40;99.90;;;;;;5078562;28;20047;-77
2022/09/15 00:19:14;;;;;;;0.10;0.10;;;15.00;99.90;;;;;;5060108;28;20391;-86
2022/09/15 00:21:41;;;;;;;0.10;0.10;;;15.30;99.90;;;;;;5060565;28;20115;-88
2022/09/15 00:24:08;;;;;;;0.13;0.13;;;16.40;99.90;;;;;;5061238;28;20024;-82
2022/09/15 00:26:34;;;;;;;0.13;0.13;;;16.40;99.90;;;;;;5078164;28;20035;-85
2022/09/15 00:29:01;;;;;;;0.10;0.10;;;16.40;99.90;;;;;;5079045;28;20514;-82
2022/09/15 00:31:29;;;;;;;0.10;0.10;;;16.40;99.90;;;;;;5078992;28;20031;-86
2022/09/15 00:34:02;;;;;;;0.10;0.10;;;16.40;99.90;;;;;;5078202;28;20013;-79
2022/09/15 00:36:28;;;;;;;0.10;0.10;;;20.10;99.90;;;;;;5078728;28;20047;-84
2022/09/15 00:38:55;;;;;;;0.10;0.10;;;16.50;99.90;;;;;;5078535;28;20028;-91
2022/09/15 00:41:22;;;;;;;0.20;0.20;;;16.50;99.90;;;;;;5078428;28;20036;-82
2022/09/15 00:43:57;;;;;;;0.10;0.10;;;16.50;99.90;;;;;;5078706;28;20165;-79
2022/09/15 00:46:35;;;;;;;0.10;0.10;;;16.50;99.90;;;;;;5078066;28;20020;-84
2022/09/15 00:49:31;;;;;;;0.10;0.10;;;16.50;99.90;;;;;;5078674;28;20291;-90
2022/09/15 00:51:57;;;;;;;0.10;0.10;;;17.30;99.90;;;;;;5081169;28;20048;-80
2022/09/15 00:54:29;;;;;;;0.20;0.20;;;16.50;99.90;;;;;;5064186;28;20163;-85
2022/09/15 00:56:57;;;;;;;0.10;0.10;;;16.50;99.90;;;;;;5083261;28;20589;-85
2022/09/15 00:59:27;;;;;;;0.10;0.10;;;16.50;99.90;;;;;;5064025;28;20069;-87
2022/09/15 01:02:11;;;;;;;0.10;0.10;;;16.60;99.90;;;;;;5082101;28;20049;-86
2022/09/15 01:04:37;;;;;;;1.15;0.95;;;16.60;99.90;;;;;;5081772;28;20289;-85
2022/09/15 01:07:07;;;;;;;2.35;2.25;;;15.70;99.90;;;;;;5082176;28;20058;-87
2022/09/15 01:09:38;;;;;;;3.78;3.63;;;16.60;99.90;;;;;;5081749;28;20030;-86
2022/09/15 01:12:04;;;;;;;0.20;0.20;;;16.60;99.90;;;;;;5081676;28;20332;-78
2022/09/15 01:14:30;;;;;;;1.60;1.50;;;16.60;99.90;;;;;;5081826;28;20130;-81
2022/09/15 01:17:11;;;;;;;0.60;0.60;;;16.70;99.90;;;;;;5063747;28;20054;-78
2022/09/15 01:20:05;;;;;;;0.47;0.47;;;16.70;99.90;;;;;;5063309;28;20020;-81
2022/09/15 01:23:22;;;;;;;0.10;0.10;;;16.70;99.90;;;;;;5081761;28;20028;-82
2022/09/15 01:26:09;;;;;;;0.30;0.30;;;16.70;99.90;;;;;;4963518;28;20523;-88
2022/09/15 01:28:51;;;;;;;5.60;5.20;;;16.80;99.90;;;;;;4979486;28;20160;-80
2022/09/15 01:31:28;;;;;;;0.85;0.85;;;16.80;99.90;;;;;;4979271;28;20057;-88
2022/09/15 01:34:30;;;;;;;0.20;0.20;;;16.90;99.90;;;;;;4979025;28;20054;-88
2022/09/15 01:37:02;;;;;;;0.10;0.10;;;17.60;99.90;;;;;;4883066;29;20045;-88
2022/09/15 01:39:33;;;;;;;0.10;0.10;;;16.90;99.90;;;;;;4867420;29;20132;-79
2022/09/15 01:42:03;;;;;;;0.43;0.43;;;17.00;99.90;;;;;;4884038;29;20220;-81
2022/09/15 01:44:43;;;;;;;0.10;0.10;;;17.00;99.90;;;;;;4884131;29;20039;-78
2022/09/15 01:47:13;;;;;;;6.50;6.22;;;17.00;99.90;;;;;;4883665;29;20047;-90
2022/09/15 01:49:46;;;;;;;0.10;0.10;;;17.00;99.90;;;;;;4884278;29;20116;-82
2022/09/15 01:52:16;;;;;;;3.33;3.10;;;17.10;99.90;;;;;;4891553;29;20131;-84
2022/09/15 01:54:47;;;;;;;4.50;4.20;;;17.10;99.90;;;;;;4888215;29;20117;-79
2022/09/15 01:57:16;;;;;;;0.70;0.70;;;17.10;99.90;;;;;;4894869;29;20052;-86
2022/09/15 01:59:43;;;;;;;23.33;21.25;;;17.10;99.90;;;;;;4876975;29;20060;-84
2022/09/15 02:02:25;;;;;;;0.10;0.10;;;17.10;99.90;;;;;;4964717;28;20050;-83
2022/09/15 02:05:08;;;;;;;3.72;3.63;;;17.20;99.90;;;;;;4982272;28;20018;-87
2022/09/15 02:07:46;;;;;;;0.47;0.47;;;17.10;99.90;;;;;;4965779;28;20366;-89
2022/09/15 02:10:25;;;;;;;0.10;0.10;;;17.10;99.90;;;;;;4979727;28;20108;-85
2022/09/15 02:13:15;;;;;;;3.42;2.17;;;17.20;99.90;;;;;;5044435;28;20028;-90
2022/09/15 02:15:50;;;;;;;0.55;0.55;;;17.20;99.90;;;;;;5081604;28;20035;-87
2022/09/15 02:18:54;;;;;;;0.10;0.10;;;17.30;99.90;;;;;;5081591;28;20030;-89
2022/09/15 02:21:22;;;;;;;;;;;17.30;99.90;;;;;;5068398;28;20116;-89
2022/09/15 02:23:53;;;;;;;0.10;0.10;;;17.20;99.90;;;;;;5062535;28;20424;-80
2022/09/15 02:26:24;;;;;;;0.20;0.20;;;17.20;99.90;;;;;;5080462;28;20433;-80
2022/09/15 02:28:53;;;;;;;0.13;0.13;;;17.20;99.90;;;;;;5061705;28;20032;-82
2022/09/15 02:31:22;;;;;;;2.13;2.05;;;17.20;99.90;;;;;;5080859;28;20471;-83
2022/09/15 02:34:00;;;;;;;2.60;2.50;;;17.20;99.90;;;;;;5080073;28;20024;-82
2022/09/15 02:36:28;;;;;;;1.10;1.10;;;17.20;99.90;;;;;;5080029;28;20048;-80
2022/09/15 02:38:59;;;;;;;0.10;0.10;;;17.20;99.90;;;;;;5080164;28;20296;-77
2022/09/15 02:41:26;;;;;;;0.45;0.45;;;15.70;99.90;;;;;;5087004;28;20067;-77
2022/09/15 02:43:52;;;;;;;0.10;0.10;;;17.20;99.90;;;;;;5080834;28;20024;-82
2022/09/15 02:46:20;;;;;;;0.10;0.10;;;17.20;99.90;;;;;;5080006;28;20020;-82
2022/09/15 02:48:49;;;;;;;0.10;0.10;;;14.40;99.90;;;;;;5079855;28;20012;-84
2022/09/15 02:51:16;;;;;;;0.10;0.10;;;17.10;99.90;;;;;;5062007;28;20339;-89
2022/09/15 02:53:44;;;;;;;0.63;0.63;;;17.00;99.90;;;;;;5079861;28;20154;-78
2022/09/15 02:56:10;;;;;;;0.10;0.10;;;17.00;99.90;;;;;;5062064;28;20551;-81
2022/09/15 02:58:36;;;;;;;0.05;0.05;;;17.00;99.90;;;;;;5080322;28;20078;-85
2022/09/15 03:01:04;;;;;;;0.10;0.10;;;17.10;99.90;;;;;;5079759;28;20062;-86
2022/09/15 03:03:31;;;;;;;0.28;0.28;;;17.00;99.90;;;;;;5079916;28;20020;-87
2022/09/15 03:06:16;;;;;;;0.10;0.10;;;17.10;99.90;;;;;;5079170;28;20367;-77
2022/09/15 03:08:55;;;;;;;0.10;0.10;;;15.90;99.90;;;;;;5079829;28;20024;-85
2022/09/15 03:11:23;;;;;;;0.10;0.10;;;17.10;99.90;;;;;;5061400;28;20075;-86
2022/09/15 03:13:53;;;;;;;0.10;0.10;;;17.20;99.90;;;;;;5079343;28;20046;-89
2022/09/15 03:16:19;;;;;;;0.10;0.10;;;17.50;99.90;;;;;;5080148;28;20016;-86
2022/09/15 03:18:45;;;;;;;0.10;0.10;;;17.40;99.90;;;;;;5062056;28;20020;-82
2022/09/15 03:21:13;;;;;;;0.10;0.10;;;18.00;99.90;;;;;;5064338;28;20044;-72
2022/09/15 03:23:40;;;;;;;0.10;0.10;;;17.90;99.90;;;;;;5069278;28;20027;-81
2022/09/15 03:26:07;;;;;;;0.10;0.10;;;17.70;99.90;;;;;;5082040;28;20222;-85
2022/09/15 03:28:34;;;;;;;0.10;0.10;;;17.70;99.90;;;;;;5088547;28;20025;-89
2022/09/15 03:31:04;;;;;;;2.80;2.65;;;17.60;99.90;;;;;;5081125;28;20130;-80
2022/09/15 03:33:41;;;;;;;0.20;0.20;;;17.50;99.90;;;;;;5080588;28;20032;-90
2022/09/15 03:36:07;;;;;;;0.10;0.10;;;17.50;99.90;;;;;;5079745;28;20028;-89
2022/09/15 03:38:33;;;;;;;0.10;0.10;;;17.50;99.90;;;;;;5061637;28;20332;-88
2022/09/15 03:41:02;;;;;;;0.10;0.10;;;17.60;99.90;;;;;;5079414;28;20031;-92
2022/09/15 03:43:29;;;;;;;0.10;0.10;;;17.70;99.90;;;;;;5061080;28;20097;-76
2022/09/15 03:46:01;;;;;;;3.63;2.45;;;18.30;99.90;;;;;;5077943;28;20020;-89
2022/09/15 03:48:29;;;;;;;5.63;5.43;;;18.70;99.90;;;;;;5079599;28;20336;-86
2022/09/15 03:50:55;;;;;;;0.10;0.10;;;18.70;99.90;;;;;;5079283;28;20630;-83
2022/09/15 03:53:21;;;;;;;0.10;0.10;;;18.70;99.90;;;;;;5061204;28;20270;-89
2022/09/15 03:55:48;;;;;;;0.10;0.10;;;;;;;;;;5061679;28;20054;-84
2022/09/15 03:58:15;;;;;;;0.10;0.10;;;18.40;99.90;;;;;;5079321;28;20116;-82
2022/09/15 04:00:48;;;;;;;0.75;0.75;;;18.30;99.90;;;;;;5079527;28;20058;-85
2022/09/15 04:03:14;;;;;;;0.10;0.10;;;19.00;99.90;;;;;;5079499;28;20028;-84
2022/09/15 04:05:42;;;;;;;0.10;0.10;;;18.50;99.90;;;;;;5079680;28;20024;-86
2022/09/15 04:08:11;;;;;;;0.10;0.10;;;18.60;99.90;;;;;;5079386;28;20040;-89
2022/09/15 04:10:38;;;;;;;0.03;0.03;;;19.60;99.90;;;;;;5061376;28;20047;-84
2022/09/15 04:13:10;;;;;;;0.00;0.00;;;19.80;99.90;;;;;;5079688;28;20020;-84
2022/09/15 04:15:36;;;;;;;0.10;0.10;;;21.00;99.90;;;;;;5079414;28;20186;-80
2022/09/15 04:18:03;;;;;;;0.82;0.82;;;20.20;99.90;;;;;;5078364;28;20661;-80
2022/09/15 04:20:29;;;;;;;0.00;0.00;;;20.40;99.80;;;;;;5061136;28;20036;-85
2022/09/15 04:22:55;;;;;;;0.10;0.10;;;20.50;99.30;;;;;;5079571;28;20177;-79
2022/09/15 04:25:21;;;;;;;0.10;0.10;;;20.60;99.10;;;;;;5062548;28;20085;-81
2022/09/15 04:27:47;;;;;;;0.10;0.10;;;20.60;99.00;;;;;;5083125;28;20055;-84
2022/09/15 04:30:13;;;;;;;0.10;0.10;;;20.70;98.60;;;;;;5083446;28;20047;-78
2022/09/15 04:32:38;;;;;;;0.10;0.10;;;20.60;98.50;;;;;;5082929;28;20309;-79
2022/09/15 04:35:22;;;;;;;0.10;0.10;;;20.70;98.60;;;;;;5082361;28;20050;-90
2022/09/15 04:37:50;;;;;;;0.08;0.08;;;20.90;98.00;;;;;;5064252;28;20051;-87
2022/09/15 04:40:16;;;;;;;0.10;0.10;;;21.00;98.30;;;;;;5064217;28;20589;-90
2022/09/15 04:42:42;;;;;;;0.10;0.10;;;19.60;97.40;;;;;;5082812;28;20103;-81
2022/09/15 04:45:14;;;;;;;0.10;0.10;;;21.00;98.70;;;;;;5083145;28;20024;-78
2022/09/15 04:47:40;;;;;;;0.10;0.10;;;21.10;97.80;;;;;;5083718;28;20016;-80
2022/09/15 04:50:06;;;;;;;0.10;0.10;;;21.00;97.80;;;;;;5083458;28;20020;-79
2022/09/15 04:52:35;;;;;;;0.10;0.10;;;21.10;97.50;;;;;;5064210;28;20402;-86
2022/09/15 04:55:01;;;;;;;0.10;0.10;;;21.20;97.30;;;;;;5083200;28;20391;-83
2022/09/15 04:57:27;;;;;;;0.10;0.10;;;20.40;96.90;;;;;;5064674;28;20107;-80
2022/09/15 04:59:53;;;;;;;0.00;0.00;;;21.40;97.00;;;;;;5082952;28;20474;-88
2022/09/15 05:02:19;;;;;;;0.00;0.00;;;21.00;96.60;;;;;;5082316;28;20059;-87
2022/09/15 05:04:47;;;;;;;0.10;0.10;;;20.70;96.70;;;;;;5082486;28;20017;-90
2022/09/15 05:07:13;;;;;;;0.10;0.10;;;21.70;96.10;;;;;;5082073;28;20045;-86
2022/09/15 05:09:42;;;;;;;0.08;0.08;;;21.70;96.20;;;;;;5082831;28;20043;-88
2022/09/15 05:12:07;;;;;;;0.10;0.10;;;21.70;96.50;;;;;;5082481;28;20028;-85
2022/09/15 05:14:33;;;;;;;0.10;0.10;;;21.80;95.90;;;;;;5082178;28;20063;-85
2022/09/15 05:16:59;;;;;;;0.10;0.10;;;21.80;95.90;;;;;;5081988;28;20028;-86
2022/09/15 05:19:27;;;;;;;0.10;0.10;;;21.90;95.80;;;;;;5082146;28;20560;-83
2022/09/15 05:21:53;;;;;;;0.00;0.00;;;21.80;95.70;;;;;;5069324;28;20032;-84
2022/09/15 05:24:18;;;;;;;0.03;0.03;;;22.30;95.80;;;;;;5088263;28;20023;-84
2022/09/15 05:26:44;;;;;;;0.10;0.10;;;21.90;95.80;;;;;;5089689;28;20502;-79
2022/09/15 05:29:10;;;;;;;0.10;0.10;;;;;;;;;;5091267;28;20020;-86
2022/09/15 05:31:38;;;;;;;0.10;0.10;;;21.90;95.10;;;;;;5090084;28;20020;-83
2022/09/15 05:34:07;;;;;;;0.10;0.10;;;21.80;95.70;;;;;;5089207;28;20611;-89
2022/09/15 05:36:35;;;;;;;0.10;0.10;;;22.00;96.00;;;;;;5084292;28;20312;-86
2022/09/15 05:39:01;;;;;;;0.10;0.10;;;22.10;94.70;;;;;;5064027;28;20036;-87
2022/09/15 05:41:30;;;;;;;0.45;0.45;;;22.20;95.10;;;;;;5062572;28;20675;-79
2022/09/15 05:43:57;;;;;;;0.10;0.10;;;22.00;94.40;;;;;;5093866;23;20074;-82
2022/09/15 05:46:26;;;;;;;0.00;0.00;;;22.00;94.70;;;;;;5042242;28;20562;-85
2022/09/15 05:49:02;;;;;;;0.10;0.10;;;;;;;;;;5046435;28;20044;-88
2022/09/15 05:51:35;;;;;;;0.00;0.00;;;22.00;95.10;;;;;;5064651;28;20017;-79
2022/09/15 05:54:11;;;;;;;0.10;0.10;;;21.90;95.50;;;;;;5043784;28;20124;-90
2022/09/15 06:00:30;;;;;;;0.10;0.10;;;21.90;95.60;;;;;;4998635;28;20026;-79
2022/09/15 06:02:56;;;;;;;0.08;0.08;;;21.80;95.90;;;;;;4986183;28;20397;-79
2022/09/15 06:05:22;;;;;;;0.20;0.20;;;22.00;96.10;;;;;;5005161;28;20326;-79
2022/09/15 06:07:47;;;;;;;0.00;0.00;;;21.90;96.20;;;;;;5011848;28;20026;-85
2022/09/15 06:10:27;;;;;;;0.10;0.10;;;21.70;96.90;;;;;;5006630;28;20038;-81
2022/09/15 06:13:02;;;;;;;0.05;0.05;;;18.30;96.00;;;;;;4988523;28;20030;-79
2022/09/15 06:15:33;;;;;;;0.10;0.10;;;22.30;97.70;;;;;;5003586;28;20026;-87
2022/09/15 06:18:15;;;;;;;0.10;0.10;;;21.30;98.80;;;;;;5002476;28;20287;-83
2022/09/15 06:20:49;;;;;;;0.00;0.00;;;21.30;97.70;;;;;;4999785;28;20116;-78
2022/09/15 06:23:20;;;;;;;0.10;0.10;;;21.30;97.90;;;;;;4998093;28;20025;-82
2022/09/15 06:25:54;;;;;;;0.10;0.10;;;21.40;97.30;;;;;;4998151;28;20048;-81
2022/09/15 06:28:28;;;;;;;0.10;0.10;;;23.20;97.60;;;;;;4982052;28;20026;-78
2022/09/15 06:31:10;;;;;;;0.10;0.10;;;21.40;98.20;;;;;;5003038;28;20029;-84
2022/09/15 06:33:39;;;;;;;0.00;0.00;;;21.40;98.20;;;;;;5043250;28;20028;-80
2022/09/15 06:36:10;;;;;;;0.10;0.10;;;21.40;98.40;;;;;;5045940;28;20131;-84
2022/09/15 06:38:38;;;;;;;0.10;0.10;;;21.40;98.50;;;;;;5080025;28;20354;-81
2022/09/15 06:41:05;;;;;;;0.10;0.10;;;21.50;98.20;;;;;;5061272;28;20317;-83
2022/09/15 06:43:49;;;;;;;0.10;0.10;;;21.50;97.60;;;;;;5084149;28;20083;-79
2022/09/15 06:46:21;;;;;;;0.10;0.10;;;21.60;96.50;;;;;;5071374;28;20508;-86
2022/09/15 06:48:53;;;;;;;0.10;0.10;;;22.00;96.10;;;;;;5069545;28;20097;-84
2022/09/15 06:51:34;;;;;;;0.10;0.10;;;22.10;96.30;;;;;;5080982;28;20031;-80
2022/09/15 06:54:20;;;;;;;0.10;0.10;;;22.40;95.00;;;;;;5064502;28;20078;-80
2022/09/15 06:56:49;;;;;;;0.00;0.00;;;22.30;95.70;;;;;;5062660;28;20048;-80
2022/09/15 06:59:23;;;;;;;0.10;0.10;;;22.30;95.20;;;;;;5080834;28;20028;-79
2022/09/15 07:02:01;;;;;;;0.10;0.10;;;22.40;95.00;;;;;;5064552;28;20032;-91
2022/09/15 07:04:33;;;;;;;0.08;0.08;;;22.80;94.90;;;;;;5084520;28;20551;-84
2022/09/15 07:07:02;;;;;;;0.00;0.00;;;22.50;94.40;;;;;;5063785;28;20028;-81
2022/09/15 07:09:30;;;;;;;0.08;0.08;;;22.40;95.10;;;;;;5081941;28;20042;-83
2022/09/15 07:11:56;;;;;;;0.10;0.10;;;;;;;;;;5080319;28;20016;-86
2022/09/15 07:14:22;;;;;;;0.10;0.10;;;22.40;95.00;;;;;;5065473;28;20104;-79
2022/09/15 07:16:48;;;;;;;0.10;0.10;;;22.40;95.50;;;;;;5084488;28;20044;-80
2022/09/15 07:19:13;;;;;;;0.10;0.10;;;22.40;95.20;;;;;;5083144;28;20028;-86
2022/09/15 07:21:39;;;;;;;0.10;0.10;;;;;;;;;;5083597;28;20024;-89
2022/09/15 07:24:06;;;;;;;0.00;0.00;;;22.30;95.10;;;;;;5082492;28;20020;-78
2022/09/15 07:26:40;;;;;;;0.00;0.00;;;22.30;95.30;;;;;;5063470;28;20031;-81
2022/09/15 07:29:14;;;;;;;0.10;0.10;;;22.80;95.50;;;;;;5084027;28;20028;-85
2022/09/15 07:31:40;;;;;;;0.10;0.10;;;22.20;96.30;;;;;;5065959;28;20570;-78
2022/09/15 07:34:08;;;;;;;0.10;0.10;;;22.20;96.10;;;;;;5064083;28;20035;-78
2022/09/15 07:36:35;;;;;;;1.00;0.90;;;;;;;;;;5067870;28;20034;-82
2022/09/15 07:39:02;;;;;;;0.00;0.00;;;22.10;96.30;;;;;;5086808;28;20047;-78
2022/09/15 07:41:32;;;;;;;0.10;0.10;;;22.00;97.00;;;;;;5085338;28;20109;-88
2022/09/15 07:44:01;;;;;;;0.10;0.10;;;22.00;96.90;;;;;;5066200;28;20020;-88
2022/09/15 07:46:31;;;;;;;0.10;0.10;;;22.00;97.60;;;;;;5068382;28;20032;-86
2022/09/15 07:49:01;;;;;;;0.10;0.10;;;19.70;96.40;;;;;;5064443;28;20024;-78
2022/09/15 07:51:27;;;;;;;0.10;0.10;;;22.00;96.10;;;;;;5082536;28;20020;-80
2022/09/15 07:53:56;;;;;;;0.00;0.00;;;22.20;94.90;;;;;;5082545;28;20395;-77
2022/09/15 07:56:23;;;;;;;0.00;0.00;;;22.30;94.50;;;;;;5062207;28;20032;-77
2022/09/15 07:58:49;;;;;;;0.10;0.10;;;22.50;93.90;;;;;;5058639;28;20041;-78
2022/09/15 08:01:17;;;;;;;0.10;0.10;;;22.70;93.40;;;;;;5062385;28;20579;-79
2022/09/15 08:03:45;;;;;;;0.00;0.00;;;22.80;93.00;;;;;;5083111;28;20098;-85
2022/09/15 08:06:12;;;;;;;0.08;0.08;;;22.90;92.30;;;;;;5085236;28;20101;-76
2022/09/15 08:08:38;;;;;;;0.10;0.10;;;22.90;92.60;;;;;;5090067;28;20039;-83
2022/09/15 08:11:10;;;;;;;0.10;0.10;;;21.10;91.80;;;;;;5088606;28;20023;-81
2022/09/15 08:13:40;;;;;;;0.10;0.10;;;23.30;92.30;;;;;;5088091;28;20024;-83
2022/09/15 08:16:12;;;;;;;0.10;0.10;;;25.40;93.00;;;;;;5071524;28;20024;-79
2022/09/15 08:18:52;;;;;;;0.10;0.10;;;23.40;91.90;;;;;;5089083;28;20200;-79
2022/09/15 08:21:26;;;;;;;0.10;0.10;;;23.50;92.20;;;;;;5097319;28;20035;-80
2022/09/15 08:24:01;;;;;;;0.25;0.20;;;23.50;91.40;;;;;;5077999;28;20028;-80
2022/09/15 08:26:28;;;;;;;0.10;0.10;;;23.70;90.50;;;;;;5089495;28;20643;-79
2022/09/15 08:28:57;;;;;;;0.15;0.15;;;23.60;90.70;;;;;;5093940;28;20485;-79
2022/09/15 08:31:25;;;;;;;0.00;0.00;;;23.70;90.90;;;;;;5079636;28;20012;-79
2022/09/15 08:34:05;;;;;;;0.00;0.00;;;23.70;91.00;;;;;;5075181;28;20279;-78
2022/09/15 08:36:31;;;;;;;0.10;0.10;;;23.60;91.00;;;;;;5071291;28;20663;-77
2022/09/15 08:39:00;;;;;;;0.00;0.00;;;;;;;;;;5068623;28;20137;-88
2022/09/15 08:41:42;;;;;;;0.00;0.00;;;23.60;90.00;;;;;;5083792;28;20051;-78
2022/09/15 08:44:19;;;;;;;0.10;0.10;;;23.60;90.30;;;;;;5066707;28;20670;-81
2022/09/15 08:46:58;;;;;;;0.00;0.00;;;23.60;89.30;;;;;;5089091;28;20027;-83
2022/09/15 08:49:31;;;;;;;0.03;0.03;;;23.60;89.30;;;;;;5089146;28;20068;-80
2022/09/15 08:52:06;;;;;;;0.20;0.20;;;23.70;89.10;;;;;;5089049;28;20028;-82
2022/09/15 08:54:36;;;;;;;0.10;0.10;;;23.70;89.90;;;;;;5091323;28;20074;-81
2022/09/15 08:57:05;;;;;;;0.20;0.20;;;23.60;90.30;;;;;;5090769;28;20028;-78
2022/09/15 08:59:35;;;;;;;0.10;0.10;;;23.70;89.00;;;;;;5088373;28;20048;-82
2022/09/15 09:02:28;;;;;;;0.10;0.10;;;23.80;89.80;;;;;;5087260;28;20761;-81
2022/09/15 09:05:28;;;;;;;0.10;0.10;;;23.30;88.90;;;;;;5087378;28;20046;-85
2022/09/15 09:08:22;;;;;;;0.10;0.10;;;23.80;89.10;;;;;;5088793;28;20113;-83
2022/09/15 09:10:59;;;;;;;0.10;0.10;;;23.90;88.20;;;;;;5054002;28;20062;-85
2022/09/15 09:14:11;;;;;;;5.32;5.10;;;23.90;89.40;;;;;;5090155;28;20008;-81
2022/09/15 09:16:49;;;;;;;0.10;0.10;;;21.80;87.10;;;;;;5090720;28;20039;-81
2022/09/15 09:19:49;;;;;;;0.10;0.10;;;24.10;90.10;;;;;;5089458;28;20105;-86
2022/09/15 09:22:26;;;;;;;0.00;0.00;;;23.40;86.20;;;;;;5090853;28;20101;-79
2022/09/15 09:24:56;;;;;;;0.00;0.00;;;24.50;87.20;;;;;;5070427;28;20081;-78
2022/09/15 09:27:33;;;;;;;0.00;0.00;;;24.60;87.10;;;;;;5071139;28;20032;-80
2022/09/15 09:30:19;;;;;;;0.00;0.00;;;22.00;85.90;;;;;;5086847;28;20032;-85
2022/09/15 09:32:56;;;;;;;0.00;0.00;;;24.90;86.20;;;;;;5086706;28;20048;-90
2022/09/15 09:35:38;;;;;;;0.00;0.00;;;25.00;86.40;;;;;;5086352;28;20008;-92
2022/09/15 09:38:07;;;;;;;0.00;0.00;;;25.20;85.40;;;;;;5065480;28;20035;-82
2022/09/15 09:40:36;;;;;;;0.00;0.00;;;24.00;84.70;;;;;;5084601;28;20059;-83
2022/09/15 09:43:04;;;;;;;0.10;0.10;;;25.20;85.10;;;;;;5083118;28;20509;-83
2022/09/15 09:45:30;;;;;;;0.15;0.15;;;25.60;84.00;;;;;;5066037;28;20051;-83
2022/09/15 09:48:05;;;;;;;0.10;0.10;;;25.50;83.60;;;;;;5082661;28;20028;-82
2022/09/15 09:50:31;;;;;;;0.63;0.57;;;25.80;82.50;;;;;;5083323;28;20096;-79
2022/09/15 09:52:57;;;;;;;2.33;1.95;;;26.10;82.90;;;;;;5064036;28;20074;-87
2022/09/15 09:55:28;;;;;;;0.00;0.00;;;26.60;83.20;;;;;;5083311;28;20020;-81
2022/09/15 09:58:23;;;;;;;0.00;0.00;;;26.90;82.60;;;;;;5084124;28;20035;-84
2022/09/15 10:00:53;;;;;;;0.00;0.00;;;26.30;82.00;;;;;;5068874;28;20019;-80
2022/09/15 10:03:23;;;;;;;0.00;0.00;;;24.00;78.90;;;;;;5088063;28;20099;-76
2022/09/15 10:06:21;;;;;;;0.00;0.00;;;26.80;81.00;;;;;;5087923;28;20036;-88
2022/09/15 10:09:29;;;;;;;0.00;0.00;;;27.10;79.30;;;;;;4963851;28;20049;-78
2022/09/15 10:12:03;;;;;;;0.00;0.00;;;28.40;79.90;;;;;;4888574;29;20213;-79
2022/09/15 10:14:37;;;;;;;0.00;0.00;;;23.80;78.60;;;;;;4892378;29;20039;-80
2022/09/15 10:17:22;;;;;;;6.95;1.58;;;27.40;79.30;;;;;;4893077;29;20028;-83
2022/09/15 10:19:53;;;;;;;0.90;0.35;;;27.50;77.20;;;;;;4907794;29;20098;-85
2022/09/15 10:22:47;;;;;;;0.00;0.00;;;27.60;78.60;;;;;;4889298;29;20040;-89
2022/09/15 10:25:28;;;;;;;0.00;0.00;;;27.70;78.00;;;;;;4906348;29;20040;-84
2022/09/15 10:28:24;;;;;;;0.00;0.00;;;28.60;76.90;;;;;;4890521;29;20744;-85
2022/09/15 10:31:24;;;;;;;0.25;0.25;;;27.90;77.40;;;;;;4885886;29;20039;-85
2022/09/15 10:33:53;;;;;;;0.00;0.00;;;27.60;77.00;;;;;;4888105;29;20096;-80
2022/09/15 10:36:42;;;;;;;0.00;0.00;;;27.90;79.20;;;;;;4873038;29;20037;-89
2022/09/15 10:39:47;;;;;;;0.00;0.00;;;27.20;76.10;;;;;;4873831;29;20152;-86
2022/09/15 10:42:25;;;;;;;0.00;0.00;;;27.40;77.90;;;;;;4891415;29;20036;-81
2022/09/15 10:45:01;;;;;;;1.33;1.27;;;27.00;77.40;;;;;;4896816;28;20486;-88
2022/09/15 10:47:47;;;;;;;0.00;0.00;;;26.90;79.20;;;;;;4981738;28;20177;-84
2022/09/15 10:50:40;;;;;;;0.00;0.00;;;27.00;78.00;;;;;;4983633;28;20125;-86
2022/09/15 10:53:19;;;;;;;0.00;0.00;;;26.90;77.60;;;;;;4999836;28;20030;-90
2022/09/15 10:56:13;;;;;;;0.00;0.00;;;26.80;77.50;;;;;;4987619;28;20026;-76
2022/09/15 10:59:05;;;;;;;0.08;0.08;;;26.80;78.20;;;;;;5002604;28;20052;-88
2022/09/15 11:01:47;;;;;;;0.00;0.00;;;26.80;78.70;;;;;;5017706;28;20037;-80
2022/09/15 11:04:40;;;;;;;0.00;0.00;;;26.60;79.10;;;;;;5057432;28;20044;-76
2022/09/15 11:07:25;;;;;;;;;;;23.90;77.90;;;;;;5076869;28;20489;-77
2022/09/15 11:10:21;;;;;;;0.38;0.38;;;26.30;78.70;;;;;;5062098;28;19911;-86
2022/09/15 11:13:13;;;;;;;1.95;1.85;;;26.40;79.70;;;;;;5062049;28;20037;-80
2022/09/15 11:15:53;;;;;;;0.00;0.00;;;26.40;79.20;;;;;;5062968;28;20020;-78
2022/09/15 11:18:43;;;;;;;0.00;0.00;;;23.10;78.10;;;;;;5043178;28;20578;-86
2022/09/15 11:21:33;;;;;;;0.30;0.25;;;26.30;80.00;;;;;;5062573;28;20668;-85
2022/09/15 11:24:26;;;;;;;0.00;0.00;;;26.20;79.80;;;;;;5062036;28;20081;-89
2022/09/15 11:27:16;;;;;;;0.15;0.15;;;25.80;79.00;;;;;;5063471;28;20027;-91
2022/09/15 11:30:01;;;;;;;0.00;0.00;;;27.50;81.70;;;;;;5061387;28;20040;-82
2022/09/15 11:32:36;;;;;;;1.80;1.75;;;25.60;80.70;;;;;;5044265;28;20055;-83
2022/09/15 11:35:37;;;;;;;0.00;0.00;;;25.90;81.80;;;;;;5066015;28;20040;-76
2022/09/15 11:38:36;;;;;;;0.00;0.00;;;25.80;81.00;;;;;;5065464;28;20076;-79
2022/09/15 11:41:23;;;;;;;0.00;0.00;;;25.80;81.50;;;;;;5056077;28;20059;-84
2022/09/15 11:44:15;;;;;;;0.00;0.00;;;25.80;81.50;;;;;;5075283;28;20514;-82
2022/09/15 11:47:07;;;;;;;0.47;0.47;;;25.80;80.90;;;;;;5068914;28;20033;-81
2022/09/15 11:49:45;;;;;;;0.00;0.00;;;25.80;81.30;;;;;;5071958;28;20063;-79
2022/09/15 11:52:23;;;;;;;0.00;0.00;;;26.00;81.10;;;;;;5062741;28;20081;-82
2022/09/15 11:54:58;;;;;;;0.00;0.00;;;26.00;81.10;;;;;;5063985;28;20214;-83
2022/09/15 11:57:43;;;;;;;0.00;0.00;;;26.00;81.30;;;;;;5066257;28;20074;-77
2022/09/15 12:00:12;;;;;;;0.00;0.00;;;26.00;81.20;;;;;;5063659;28;20017;-83
2022/09/15 12:03:06;;;;;;;1.27;1.17;;;26.00;81.30;;;;;;5071586;28;20052;-83
2022/09/15 12:05:31;;;;;;;;;;;26.10;80.90;;;;;;5063012;28;20029;-79
2022/09/15 12:08:20;;;;;;;0.00;0.00;;;26.00;81.10;;;;;;5061334;28;20057;-80
2022/09/15 12:10:53;;;;;;;0.00;0.00;;;26.10;81.20;;;;;;5060211;28;20033;-79
2022/09/15 12:13:20;;;;;;;;;;;26.00;80.90;;;;;;5063467;28;20036;-79
2022/09/15 12:15:47;;;;;;;0.00;0.00;;;26.00;81.10;;;;;;5059132;28;19948;-79
2022/09/15 12:18:24;;;;;;;3.83;3.45;;;26.00;81.30;;;;;;5060824;28;20227;-83
2022/09/15 12:21:04;;;;;;;0.00;0.00;;;23.40;80.40;;;;;;5062957;28;20024;-76
2022/09/15 12:23:40;;;;;;;0.10;0.10;;;26.00;81.30;;;;;;5061587;28;20028;-78
2022/09/15 12:26:19;;;;;;;0.08;0.08;;;26.00;80.20;;;;;;5061567;28;20031;-81
2022/09/15 12:29:02;;;;;;;9.27;3.75;;;26.00;81.80;;;;;;5060391;28;20302;-79
2022/09/15 12:31:40;;;;;;;0.10;0.10;;;26.10;82.90;;;;;;5060829;28;20020;-79
2022/09/15 12:34:31;;;;;;;0.03;0.03;;;26.10;83.30;;;;;;5059866;28;20029;-79
2022/09/15 12:37:10;;;;;;;0.00;0.00;;;26.10;84.00;;;;;;5061750;28;20021;-82
2022/09/15 12:39:44;;;;;;;0.10;0.10;;;26.30;84.00;;;;;;5061840;28;20074;-84
2022/09/15 12:42:17;;;;;;;0.00;0.00;;;26.10;83.00;;;;;;5053979;28;20043;-84
2022/09/15 12:44:54;;;;;;;0.20;0.20;;;26.20;82.60;;;;;;5068143;28;20613;-80
2022/09/15 12:47:41;;;;;;;0.00;0.00;;;26.20;82.20;;;;;;5068822;28;20240;-78
2022/09/15 12:50:16;;;;;;;0.00;0.00;;;26.30;82.00;;;;;;5088025;28;20437;-83
2022/09/15 12:53:11;;;;;;;0.00;0.00;;;26.30;82.40;;;;;;5086770;28;20024;-80
2022/09/15 12:55:50;;;;;;;0.00;0.00;;;26.10;82.10;;;;;;5083724;28;20020;-83
2022/09/15 12:58:20;;;;;;;0.10;0.10;;;26.20;82.60;;;;;;5083087;28;20027;-81
2022/09/15 13:00:46;;;;;;;0.00;0.00;;;26.20;82.10;;;;;;5082297;28;20035;-80
2022/09/15 13:03:38;;;;;;;0.00;0.00;;;26.10;82.00;;;;;;5063647;28;20358;-79
2022/09/15 13:06:13;;;;;;;0.00;0.00;;;26.00;81.60;;;;;;4980642;28;20026;-82
2022/09/15 13:08:49;;;;;;;0.00;0.00;;;25.90;81.90;;;;;;4980834;28;20046;-80
2022/09/15 13:11:38;;;;;;;0.00;0.00;;;25.90;80.60;;;;;;4980828;28;20035;-82
2022/09/15 13:14:07;;;;;;;0.00;0.00;;;25.70;80.30;;;;;;4980040;28;20022;-77
2022/09/15 13:16:39;;;;;;;0.10;0.10;;;25.70;81.80;;;;;;4979592;28;20509;-82
2022/09/15 13:19:34;;;;;;;0.00;0.00;;;25.60;83.20;;;;;;4980109;28;20240;-79
2022/09/15 13:22:26;;;;;;;0.00;0.00;;;25.80;80.80;;;;;;4980211;28;20073;-80
2022/09/15 13:25:12;;;;;;;0.00;0.00;;;25.70;80.70;;;;;;4979837;28;20484;-80
2022/09/15 13:27:47;;;;;;;3.88;3.60;;;25.80;81.10;;;;;;4981929;28;20406;-79
2022/09/15 13:30:37;;;;;;;1.20;1.13;;;25.70;81.40;;;;;;4982688;28;20045;-80
2022/09/15 13:33:03;;;;;;;0.00;0.00;;;25.70;81.40;;;;;;4985807;28;20184;-84